Time;durP1;ratioP1;P1;durP2;ratioP2;P2;SDS_P1;SDS_P2;PMS_P1;PMS_P2;Temp;Humidity;BMP_temperature;BMP_pressure;BME280_temperature;BME280_humidity;BME280_pressure;Samples;Min_cycle;Max_cycle;Signal;HPM_P1;HPM_P2
2021/05/23 00:02:24;;;;;;;8.30;7.50;;;22.20;79.70;;;;;;5144810;27;20460;-40
2021/05/23 00:04:55;;;;;;;9.37;8.50;;;22.40;79.60;;;;;;5143279;27;20488;-40
2021/05/23 00:07:28;;;;;;;8.80;8.10;;;22.40;78.80;;;;;;5146053;27;20470;-39
2021/05/23 00:10:00;;;;;;;8.40;7.67;;;22.50;80.70;;;;;;5145270;27;20490;-41
2021/05/23 00:12:31;;;;;;;9.43;8.53;;;22.60;79.90;;;;;;5145515;27;20439;-41
2021/05/23 00:15:02;;;;;;;8.67;7.97;;;23.00;77.90;;;;;;5144837;27;20488;-39
2021/05/23 00:17:32;;;;;;;9.80;8.90;;;23.30;76.50;;;;;;5145530;27;20524;-41
2021/05/23 00:20:03;;;;;;;9.13;8.37;;;23.40;77.90;;;;;;5145052;27;20968;-39
2021/05/23 00:22:33;;;;;;;8.97;8.17;;;23.30;76.90;;;;;;5145334;27;20457;-41
2021/05/23 00:25:06;;;;;;;8.70;8.00;;;23.20;77.00;;;;;;5140888;27;20448;-41
2021/05/23 00:27:36;;;;;;;9.63;8.77;;;23.10;78.40;;;;;;5139200;27;20445;-41
2021/05/23 00:30:09;;;;;;;9.07;8.43;;;22.80;76.50;;;;;;5143193;27;20449;-42
2021/05/23 00:32:39;;;;;;;9.70;8.90;;;22.70;76.50;;;;;;5144672;27;20540;-41
2021/05/23 00:35:11;;;;;;;9.87;8.70;;;22.50;78.10;;;;;;5140858;27;20480;-41
2021/05/23 00:37:41;;;;;;;9.90;9.00;;;22.20;79.10;;;;;;5144455;27;20452;-40
2021/05/23 00:40:14;;;;;;;9.57;8.77;;;22.20;81.00;;;;;;5144731;27;20423;-41
2021/05/23 00:42:44;;;;;;;10.13;8.83;;;22.30;79.90;;;;;;5144792;27;20445;-42
2021/05/23 00:45:17;;;;;;;9.40;8.20;;;22.10;80.90;;;;;;5128563;27;20900;-40
2021/05/23 00:47:48;;;;;;;10.87;9.87;;;22.00;82.30;;;;;;5145273;27;20481;-41
2021/05/23 00:50:21;;;;;;;9.17;8.27;;;22.10;80.20;;;;;;5144227;27;20449;-41
2021/05/23 00:52:53;;;;;;;10.20;9.30;;;22.30;81.00;;;;;;5140983;27;20456;-40
2021/05/23 00:55:25;;;;;;;10.57;9.50;;;22.30;79.40;;;;;;5144400;27;20512;-41
2021/05/23 00:57:55;;;;;;;9.83;8.93;;;22.20;80.30;;;;;;5145043;27;20525;-41
2021/05/23 01:01:05;;;;;;;10.20;9.33;;;22.00;82.10;;;;;;5143341;27;20760;-41
2021/05/23 01:04:00;;;;;;;10.57;9.60;;;22.10;81.80;;;;;;5129677;27;20908;-40
2021/05/23 01:06:33;;;;;;;10.33;9.33;;;21.90;79.50;;;;;;5127083;27;20480;-40
2021/05/23 01:09:07;;;;;;;12.23;9.80;;;21.70;81.60;;;;;;5142083;27;20440;-40
2021/05/23 01:12:20;;;;;;;10.53;9.50;;;21.60;82.20;;;;;;5133801;27;20431;-41
2021/05/23 01:15:01;;;;;;;9.60;8.80;;;21.50;82.50;;;;;;5143593;27;21008;-40
2021/05/23 01:17:47;;;;;;;10.47;9.57;;;21.40;83.70;;;;;;5145042;27;20432;-41
2021/05/23 01:20:27;;;;;;;9.67;8.73;;;21.30;83.80;;;;;;5144097;27;20501;-42
2021/05/23 01:23:26;;;;;;;9.83;9.03;;;21.20;84.60;;;;;;5144250;27;20423;-41
2021/05/23 01:26:05;;;;;;;10.03;9.03;;;21.10;83.90;;;;;;5144393;27;20449;-41
2021/05/23 01:28:39;;;;;;;10.50;9.50;;;21.20;84.10;;;;;;5142853;27;20682;-41
2021/05/23 01:31:13;;;;;;;11.07;10.00;;;21.10;84.50;;;;;;5144723;27;20435;-41
2021/05/23 01:33:45;;;;;;;10.57;9.70;;;21.00;84.50;;;;;;5142640;27;20449;-41
2021/05/23 01:36:15;;;;;;;10.73;9.73;;;20.80;84.60;;;;;;5143584;27;20512;-41
2021/05/23 01:38:46;;;;;;;10.73;9.73;;;20.80;85.60;;;;;;5143447;27;20427;-39
2021/05/23 01:41:18;;;;;;;11.37;10.17;;;20.70;86.00;;;;;;5144175;27;20428;-41
2021/05/23 01:43:49;;;;;;;9.53;8.73;;;20.60;86.20;;;;;;5139884;27;20419;-41
2021/05/23 01:46:20;;;;;;;10.50;9.50;;;20.40;86.40;;;;;;5131517;27;20444;-41
2021/05/23 01:48:51;;;;;;;10.03;9.23;;;20.40;86.20;;;;;;5143848;27;20480;-41
2021/05/23 01:51:21;;;;;;;9.67;8.70;;;20.30;87.20;;;;;;5143954;27;20455;-40
2021/05/23 01:53:52;;;;;;;9.80;8.90;;;20.20;87.60;;;;;;5142796;27;20453;-40
2021/05/23 01:56:23;;;;;;;10.00;9.20;;;20.20;87.50;;;;;;5143979;27;20569;-39
2021/05/23 01:58:54;;;;;;;9.70;8.80;;;20.20;86.50;;;;;;5142775;27;20411;-41
2021/05/23 02:01:25;;;;;;;8.73;7.93;;;20.10;87.80;;;;;;5144040;27;20419;-40
2021/05/23 02:04:00;;;;;;;7.90;7.17;;;20.10;87.30;;;;;;5142720;27;20439;-38
2021/05/23 02:06:31;;;;;;;7.87;6.30;;;19.90;88.20;;;;;;5143345;28;20434;-41
2021/05/23 02:09:01;;;;;;;7.17;6.50;;;19.80;90.20;;;;;;5143045;28;20442;-37
2021/05/23 02:11:33;;;;;;;9.07;8.10;;;19.70;90.20;;;;;;5143908;28;20528;-38
2021/05/23 02:14:04;;;;;;;6.83;6.23;;;19.70;91.20;;;;;;5142738;28;20440;-39
2021/05/23 02:16:35;;;;;;;7.63;7.03;;;19.60;89.50;;;;;;5144048;28;20504;-39
2021/05/23 02:19:07;;;;;;;6.50;6.00;;;19.40;91.00;;;;;;5143058;28;20455;-38
2021/05/23 02:21:38;;;;;;;6.63;6.03;;;19.40;90.80;;;;;;5143324;28;20434;-40
2021/05/23 02:24:09;;;;;;;6.77;6.17;;;19.40;90.40;;;;;;5143089;28;20951;-39
2021/05/23 02:26:40;;;;;;;5.90;5.40;;;19.30;89.40;;;;;;5140906;28;20834;-41
2021/05/23 02:29:11;;;;;;;5.90;5.50;;;19.10;89.30;;;;;;5143172;28;20442;-41
2021/05/23 02:31:42;;;;;;;5.90;5.40;;;18.90;89.50;;;;;;5142960;28;20445;-39
2021/05/23 02:34:12;;;;;;;5.03;4.53;;;18.80;89.90;;;;;;5143151;28;20423;-39
2021/05/23 02:36:42;;;;;;;5.00;4.60;;;18.70;90.90;;;;;;5144024;28;20537;-41
2021/05/23 02:39:13;;;;;;;6.43;4.47;;;18.60;90.60;;;;;;5143393;28;20477;-40
2021/05/23 02:41:45;;;;;;;5.10;4.70;;;18.50;90.60;;;;;;5143220;28;20440;-41
2021/05/23 02:44:15;;;;;;;4.90;4.50;;;18.30;91.30;;;;;;5142984;27;20445;-40
2021/05/23 02:46:48;;;;;;;4.87;4.47;;;18.20;91.30;;;;;;5143528;28;20459;-40
2021/05/23 02:49:19;;;;;;;6.27;4.53;;;18.20;91.50;;;;;;5143248;28;20919;-40
2021/05/23 02:51:49;;;;;;;4.57;4.17;;;18.10;91.90;;;;;;5143897;28;20489;-40
2021/05/23 02:54:20;;;;;;;4.73;4.30;;;17.90;92.40;;;;;;5142362;28;20461;-41
2021/05/23 02:56:51;;;;;;;5.27;4.47;;;17.90;92.40;;;;;;5142428;28;20533;-40
2021/05/23 02:59:22;;;;;;;4.73;4.33;;;17.80;92.80;;;;;;5143400;28;20508;-40
2021/05/23 03:01:52;;;;;;;3.90;3.60;;;17.80;92.80;;;;;;5143802;28;20460;-42
2021/05/23 03:04:23;;;;;;;4.70;4.30;;;17.70;93.10;;;;;;5142722;28;20449;-41
2021/05/23 03:06:53;;;;;;;5.27;4.20;;;17.60;93.50;;;;;;5127705;28;20815;-42
2021/05/23 03:09:24;;;;;;;8.50;4.20;;;17.50;93.60;;;;;;5142869;28;20897;-42
2021/05/23 03:11:55;;;;;;;5.03;4.27;;;17.40;93.70;;;;;;5144379;27;20471;-41
2021/05/23 03:14:26;;;;;;;5.50;4.60;;;17.50;94.10;;;;;;5146427;27;20449;-39
2021/05/23 03:16:56;;;;;;;4.70;4.30;;;17.30;94.00;;;;;;5146610;27;20502;-40
2021/05/23 03:19:26;;;;;;;4.77;4.37;;;17.30;94.70;;;;;;5145748;27;20474;-40
2021/05/23 03:21:57;;;;;;;4.80;4.40;;;17.30;94.90;;;;;;5146711;27;20449;-40
2021/05/23 03:24:27;;;;;;;7.53;4.00;;;17.20;94.40;;;;;;5146117;27;20445;-38
2021/05/23 03:26:59;;;;;;;4.60;4.00;;;17.00;94.90;;;;;;5143256;27;20815;-40
2021/05/23 03:29:30;;;;;;;4.27;3.97;;;16.90;95.20;;;;;;5145691;27;20448;-41
2021/05/23 03:32:00;;;;;;;4.20;3.80;;;16.90;95.20;;;;;;5143608;27;20441;-37
2021/05/23 03:34:30;;;;;;;3.80;3.50;;;16.80;95.70;;;;;;5146327;27;20449;-40
2021/05/23 03:37:01;;;;;;;3.93;3.60;;;16.70;95.50;;;;;;5146032;27;20953;-41
2021/05/23 03:39:31;;;;;;;4.20;3.90;;;16.70;95.90;;;;;;5140778;27;20523;-41
2021/05/23 03:42:03;;;;;;;5.70;3.70;;;16.70;95.90;;;;;;5146280;27;20581;-41
2021/05/23 03:44:33;;;;;;;5.80;3.80;;;16.60;96.00;;;;;;5143006;27;20452;-40
2021/05/23 03:47:04;;;;;;;4.80;3.27;;;16.60;96.30;;;;;;5146720;27;20438;-40
2021/05/23 03:49:37;;;;;;;3.93;3.63;;;16.70;96.60;;;;;;5146185;27;20483;-41
2021/05/23 03:52:09;;;;;;;4.37;4.07;;;16.60;96.40;;;;;;5145965;27;20494;-40
2021/05/23 03:54:40;;;;;;;4.73;3.30;;;16.50;97.30;;;;;;5145286;27;20445;-41
2021/05/23 03:57:12;;;;;;;4.53;4.03;;;16.40;97.80;;;;;;5145577;27;20496;-41
2021/05/23 03:59:42;;;;;;;4.33;4.00;;;16.40;97.70;;;;;;5144758;27;20449;-39
2021/05/23 04:02:13;;;;;;;4.80;4.37;;;16.30;98.00;;;;;;5144777;27;20449;-42
2021/05/23 04:04:47;;;;;;;4.10;3.80;;;16.30;98.20;;;;;;5145084;27;20453;-40
2021/05/23 04:07:20;;;;;;;5.17;4.67;;;16.30;98.20;;;;;;5144733;27;20501;-40
2021/05/23 04:09:52;;;;;;;6.17;5.67;;;16.20;98.70;;;;;;5145269;27;20445;-39
2021/05/23 04:12:26;;;;;;;9.83;5.63;;;16.20;99.20;;;;;;5131477;27;20438;-41
2021/05/23 04:14:57;;;;;;;6.00;5.40;;;16.20;99.20;;;;;;5144884;27;20480;-40
2021/05/23 04:17:28;;;;;;;5.73;5.20;;;16.10;99.20;;;;;;5144858;27;20481;-40
2021/05/23 04:19:59;;;;;;;6.50;5.53;;;16.00;99.90;;;;;;5145014;27;20559;-41
2021/05/23 04:22:30;;;;;;;5.40;4.90;;;16.10;99.90;;;;;;5144332;27;20460;-40
2021/05/23 04:25:02;;;;;;;7.47;6.23;;;16.00;99.90;;;;;;5142906;27;20441;-40
2021/05/23 04:27:34;;;;;;;6.97;6.20;;;16.00;99.90;;;;;;5141797;27;20464;-40
2021/05/23 04:30:05;;;;;;;6.20;5.60;;;16.00;99.90;;;;;;5141243;27;20470;-40
2021/05/23 04:32:37;;;;;;;6.73;6.10;;;15.90;99.90;;;;;;5144902;27;20474;-40
2021/05/23 04:35:09;;;;;;;6.23;5.60;;;15.90;99.90;;;;;;5144727;27;20843;-41
2021/05/23 04:37:40;;;;;;;6.93;6.37;;;15.90;99.90;;;;;;5145122;27;20485;-41
2021/05/23 04:40:12;;;;;;;7.93;6.17;;;15.80;99.90;;;;;;5144716;27;20485;-39
2021/05/23 04:42:44;;;;;;;8.83;8.03;;;15.80;99.90;;;;;;5145607;27;20472;-40
2021/05/23 04:45:33;;;;;;;8.33;7.53;;;15.80;99.90;;;;;;5143300;27;20465;-41
2021/05/23 04:48:05;;;;;;;7.40;6.80;;;15.80;99.90;;;;;;5144424;27;20988;-41
2021/05/23 04:50:36;;;;;;;7.20;6.60;;;15.80;99.90;;;;;;5138409;27;20502;-43
2021/05/23 04:53:06;;;;;;;5.20;4.33;;;15.80;99.90;;;;;;5144331;27;20453;-38
2021/05/23 04:55:37;;;;;;;5.00;4.60;;;15.80;99.90;;;;;;5144126;27;20444;-41
2021/05/23 04:58:09;;;;;;;4.70;4.20;;;15.80;99.90;;;;;;5145246;27;20467;-39
2021/05/23 05:00:39;;;;;;;4.43;4.03;;;15.70;99.90;;;;;;5144191;27;20457;-41
2021/05/23 05:03:10;;;;;;;3.80;3.50;;;15.80;99.90;;;;;;5144268;27;20476;-43
2021/05/23 05:05:40;;;;;;;5.90;5.37;;;15.70;99.00;;;;;;5144616;27;20453;-41
2021/05/23 05:08:11;;;;;;;3.57;3.10;;;15.70;99.10;;;;;;5144535;27;20453;-40
2021/05/23 05:10:41;;;;;;;4.27;3.20;;;15.60;98.40;;;;;;5139069;27;20440;-38
2021/05/23 05:13:13;;;;;;;3.83;3.53;;;15.50;97.50;;;;;;5143748;27;20440;-40
2021/05/23 05:15:43;;;;;;;4.50;3.60;;;15.50;97.40;;;;;;5142935;27;20449;-40
2021/05/23 05:18:14;;;;;;;3.47;3.23;;;15.40;97.00;;;;;;5144080;27;20490;-40
2021/05/23 05:20:44;;;;;;;3.43;3.23;;;15.30;96.80;;;;;;5144518;27;20445;-39
2021/05/23 05:23:15;;;;;;;2.60;2.40;;;15.20;96.70;;;;;;5142275;27;20441;-37
2021/05/23 05:25:45;;;;;;;2.80;2.60;;;15.10;97.20;;;;;;5144535;27;20441;-39
2021/05/23 05:28:17;;;;;;;2.43;2.23;;;15.00;96.90;;;;;;5134608;27;20449;-40
2021/05/23 05:30:47;;;;;;;2.77;2.57;;;14.90;97.10;;;;;;5143311;27;20801;-39
2021/05/23 05:33:18;;;;;;;3.00;2.80;;;14.80;97.20;;;;;;5143766;27;20455;-40
2021/05/23 05:35:48;;;;;;;4.87;3.67;;;14.80;97.60;;;;;;5143168;27;20521;-39
2021/05/23 05:38:19;;;;;;;3.30;2.70;;;14.80;97.80;;;;;;5144966;27;20552;-40
2021/05/23 05:40:53;;;;;;;2.83;2.73;;;14.80;98.10;;;;;;5149740;27;20451;-40
2021/05/23 05:43:25;;;;;;;2.60;2.40;;;14.80;97.90;;;;;;5142915;27;21337;-40
2021/05/23 05:45:55;;;;;;;3.50;2.70;;;14.70;98.10;;;;;;5129902;27;20474;-41
2021/05/23 05:48:26;;;;;;;4.80;3.73;;;14.60;98.40;;;;;;5143427;27;20855;-40
2021/05/23 05:50:58;;;;;;;3.90;3.33;;;14.50;98.70;;;;;;5144328;27;20517;-41
2021/05/23 05:53:28;;;;;;;2.73;2.53;;;14.50;98.90;;;;;;5141495;27;20445;-41
2021/05/23 05:55:59;;;;;;;3.57;3.20;;;14.50;98.90;;;;;;5143858;27;20449;-41
2021/05/23 05:58:30;;;;;;;2.93;2.73;;;14.50;99.20;;;;;;5143746;27;20449;-38
2021/05/23 06:01:01;;;;;;;3.87;3.57;;;14.40;99.20;;;;;;5143300;27;20498;-41
2021/05/23 06:03:32;;;;;;;3.20;3.00;;;14.40;99.60;;;;;;5142952;27;20519;-41
2021/05/23 06:06:02;;;;;;;3.63;2.60;;;14.30;99.70;;;;;;5143705;27;20445;-40
2021/05/23 06:08:33;;;;;;;3.70;3.13;;;14.30;99.70;;;;;;5143134;28;20478;-40
2021/05/23 06:11:04;;;;;;;4.10;3.80;;;14.30;99.80;;;;;;5144084;28;20430;-41
2021/05/23 06:13:35;;;;;;;2.93;2.73;;;14.30;99.90;;;;;;5140682;28;20441;-41
2021/05/23 06:16:06;;;;;;;3.00;2.70;;;14.20;99.90;;;;;;5138152;28;20445;-41
2021/05/23 06:18:36;;;;;;;3.77;3.33;;;14.20;99.90;;;;;;5142808;28;20538;-41
2021/05/23 06:21:07;;;;;;;3.83;3.20;;;14.20;99.90;;;;;;5143562;28;20781;-41
2021/05/23 06:23:38;;;;;;;3.40;3.10;;;14.10;99.90;;;;;;5143177;28;20463;-40
2021/05/23 06:26:13;;;;;;;2.67;2.47;;;14.20;99.90;;;;;;5141186;28;20444;-39
2021/05/23 06:28:45;;;;;;;4.17;3.87;;;14.10;99.90;;;;;;5142412;28;20440;-38
2021/05/23 06:31:15;;;;;;;3.50;2.50;;;14.00;99.90;;;;;;5142928;28;20597;-40
2021/05/23 06:33:46;;;;;;;6.23;5.73;;;14.00;99.90;;;;;;5137658;28;20459;-40
2021/05/23 06:36:16;;;;;;;3.10;2.90;;;14.00;99.90;;;;;;5143023;28;20456;-39
2021/05/23 06:38:47;;;;;;;2.90;2.70;;;14.00;99.90;;;;;;5142686;28;20441;-39
2021/05/23 06:41:17;;;;;;;3.93;3.63;;;13.90;99.90;;;;;;5143479;28;20445;-40
2021/05/23 06:43:49;;;;;;;2.90;2.70;;;13.80;99.90;;;;;;5139914;28;20445;-38
2021/05/23 06:46:20;;;;;;;3.30;3.10;;;13.80;99.90;;;;;;5143049;27;20577;-39
2021/05/23 06:48:51;;;;;;;4.10;3.50;;;13.90;99.90;;;;;;5146807;27;20564;-40
2021/05/23 06:51:22;;;;;;;5.03;4.63;;;13.90;99.90;;;;;;5147271;27;20453;-40
2021/05/23 06:53:52;;;;;;;3.10;2.90;;;13.80;99.90;;;;;;5141929;27;20455;-39
2021/05/23 06:56:23;;;;;;;3.00;2.80;;;13.80;99.90;;;;;;5146884;27;20448;-40
2021/05/23 06:58:54;;;;;;;2.90;2.60;;;13.80;99.90;;;;;;5146111;27;21288;-40
2021/05/23 07:01:25;;;;;;;3.13;2.87;;;13.80;99.90;;;;;;5146774;27;20445;-39
2021/05/23 07:03:55;;;;;;;7.07;3.20;;;13.70;99.90;;;;;;5146842;27;20445;-39
2021/05/23 07:06:26;;;;;;;3.03;2.83;;;13.70;99.90;;;;;;5146653;27;20486;-38
2021/05/23 07:08:56;;;;;;;3.63;2.43;;;13.70;99.90;;;;;;5147016;27;20497;-39
2021/05/23 07:11:28;;;;;;;4.90;2.40;;;13.70;99.90;;;;;;5146624;27;20441;-40
2021/05/23 07:13:59;;;;;;;2.97;2.70;;;13.70;99.90;;;;;;5145434;27;20456;-39
2021/05/23 07:16:30;;;;;;;3.20;2.90;;;13.60;99.90;;;;;;5146257;27;20467;-39
2021/05/23 07:19:01;;;;;;;2.10;2.00;;;13.60;99.90;;;;;;5146374;27;20451;-37
2021/05/23 07:21:32;;;;;;;4.10;3.33;;;13.50;99.90;;;;;;5146720;27;20443;-37
2021/05/23 07:24:03;;;;;;;3.00;2.77;;;13.40;99.90;;;;;;5146492;27;20441;-38
2021/05/23 07:26:33;;;;;;;3.27;3.07;;;13.40;99.90;;;;;;5141342;27;20506;-39
2021/05/23 07:29:06;;;;;;;3.13;2.93;;;13.40;99.90;;;;;;5145560;27;20453;-39
2021/05/23 07:31:36;;;;;;;2.80;2.60;;;13.40;99.90;;;;;;5146556;27;20475;-38
2021/05/23 07:34:07;;;;;;;2.67;2.47;;;13.40;99.90;;;;;;5146173;27;20453;-40
2021/05/23 07:36:37;;;;;;;2.90;2.70;;;13.40;99.90;;;;;;5146244;27;20198;-38
2021/05/23 07:39:08;;;;;;;3.20;2.90;;;13.30;99.90;;;;;;5146345;27;20928;-39
2021/05/23 07:41:38;;;;;;;3.20;3.00;;;13.40;99.90;;;;;;5146513;27;20454;-37
2021/05/23 07:44:10;;;;;;;3.40;3.10;;;13.40;99.90;;;;;;5135616;27;20456;-40
2021/05/23 07:46:40;;;;;;;3.33;3.13;;;13.40;99.90;;;;;;5139783;27;20537;-39
2021/05/23 07:49:11;;;;;;;3.17;2.97;;;13.40;99.90;;;;;;5145376;27;20469;-39
2021/05/23 07:51:42;;;;;;;3.07;2.70;;;13.40;99.90;;;;;;5146543;27;20480;-39
2021/05/23 07:54:12;;;;;;;2.53;2.33;;;13.40;99.90;;;;;;5145936;27;20449;-39
2021/05/23 07:56:42;;;;;;;2.83;2.63;;;13.40;99.90;;;;;;5145642;27;20444;-39
2021/05/23 07:59:14;;;;;;;3.37;3.07;;;13.50;99.90;;;;;;5144284;27;20449;-40
2021/05/23 08:01:45;;;;;;;3.30;2.87;;;13.50;99.90;;;;;;5145990;27;20548;-39
2021/05/23 08:04:15;;;;;;;3.70;3.03;;;13.40;99.90;;;;;;5145478;27;20452;-39
2021/05/23 08:06:46;;;;;;;3.00;2.80;;;13.40;99.90;;;;;;5145835;27;20445;-38
2021/05/23 08:09:16;;;;;;;5.07;2.93;;;13.30;99.90;;;;;;5145852;27;20449;-37
2021/05/23 08:11:47;;;;;;;3.60;3.30;;;13.30;99.90;;;;;;5145540;27;20463;-39
2021/05/23 08:14:22;;;;;;;2.63;2.43;;;13.30;99.90;;;;;;5144292;27;20453;-39
2021/05/23 08:16:53;;;;;;;2.80;2.60;;;13.40;99.90;;;;;;5145439;27;20476;-40
2021/05/23 08:19:24;;;;;;;5.37;5.07;;;13.40;99.90;;;;;;5145315;27;20441;-39
2021/05/23 08:21:54;;;;;;;5.73;5.33;;;13.30;99.90;;;;;;5143475;27;20452;-38
2021/05/23 08:24:25;;;;;;;4.23;3.90;;;13.30;99.90;;;;;;5145587;27;20453;-40
2021/05/23 08:26:55;;;;;;;4.33;3.20;;;13.30;99.90;;;;;;5137570;27;20515;-37
2021/05/23 08:29:29;;;;;;;3.60;3.30;;;13.30;99.90;;;;;;5144148;27;20518;-37
2021/05/23 08:32:00;;;;;;;3.97;3.43;;;13.30;99.90;;;;;;5145586;27;20490;-39
2021/05/23 08:34:31;;;;;;;3.60;3.37;;;13.30;99.90;;;;;;5145797;27;20434;-36
2021/05/23 08:37:02;;;;;;;3.63;2.97;;;13.30;99.90;;;;;;5145065;27;20920;-39
2021/05/23 08:39:32;;;;;;;4.43;3.33;;;13.30;99.90;;;;;;5144682;27;20444;-36
2021/05/23 08:42:03;;;;;;;6.63;6.03;;;13.30;99.90;;;;;;5145363;27;20497;-38
2021/05/23 08:44:35;;;;;;;11.70;10.50;;;13.30;99.90;;;;;;5139518;27;20502;-40
2021/05/23 08:47:06;;;;;;;15.20;13.70;;;13.30;99.90;;;;;;5144934;27;20437;-39
2021/05/23 08:49:37;;;;;;;14.80;13.30;;;13.30;99.90;;;;;;5141403;27;20476;-36
2021/05/23 08:52:08;;;;;;;11.97;10.47;;;13.30;99.90;;;;;;5145027;27;20473;-39
2021/05/23 08:54:41;;;;;;;6.90;5.83;;;13.30;99.90;;;;;;5144108;27;20456;-38
2021/05/23 08:57:12;;;;;;;3.50;3.20;;;13.30;99.90;;;;;;5135621;27;20533;-41
2021/05/23 08:59:44;;;;;;;4.43;3.70;;;13.20;99.90;;;;;;5143047;27;20510;-34
2021/05/23 09:02:14;;;;;;;7.43;6.83;;;13.20;99.90;;;;;;5144427;27;20490;-40
2021/05/23 09:04:53;;;;;;;18.37;15.70;;;13.20;99.90;;;;;;5144622;27;20866;-40
2021/05/23 09:07:23;;;;;;;18.60;15.10;;;13.10;99.90;;;;;;5144718;27;20460;-40
2021/05/23 09:09:53;;;;;;;17.30;14.93;;;13.20;99.90;;;;;;5144011;27;20448;-39
2021/05/23 09:12:24;;;;;;;13.27;10.10;;;13.20;99.90;;;;;;5144016;27;20448;-40
2021/05/23 09:14:56;;;;;;;11.07;8.83;;;13.10;99.90;;;;;;5143159;27;20448;-39
2021/05/23 09:17:27;;;;;;;7.50;6.60;;;13.20;99.90;;;;;;5144455;27;20535;-39
2021/05/23 09:19:58;;;;;;;5.70;5.07;;;13.20;99.90;;;;;;5143999;27;20449;-39
2021/05/23 09:22:29;;;;;;;6.30;5.40;;;13.20;99.90;;;;;;5144813;27;20457;-37
2021/05/23 09:25:02;;;;;;;4.90;3.67;;;13.10;99.90;;;;;;5143948;27;20516;-39
2021/05/23 09:27:34;;;;;;;4.83;3.83;;;13.10;99.90;;;;;;5143807;27;20499;-38
2021/05/23 09:30:11;;;;;;;3.50;3.20;;;13.10;99.90;;;;;;5142954;27;20484;-37
2021/05/23 09:32:45;;;;;;;3.70;3.17;;;13.10;99.90;;;;;;5137315;27;20892;-38
2021/05/23 09:35:16;;;;;;;3.90;2.50;;;13.00;99.90;;;;;;5144167;27;20503;-37
2021/05/23 09:37:57;;;;;;;2.70;2.50;;;13.00;99.90;;;;;;5139560;27;20484;-38
2021/05/23 09:40:30;;;;;;;3.20;2.50;;;13.10;99.90;;;;;;5127210;27;20449;-37
2021/05/23 09:43:01;;;;;;;2.83;2.63;;;13.10;99.90;;;;;;5143811;27;20452;-39
2021/05/23 09:45:45;;;;;;;3.70;3.10;;;13.00;99.90;;;;;;5135544;27;20442;-39
2021/05/23 09:48:35;;;;;;;2.30;2.20;;;12.90;99.90;;;;;;5142802;27;20498;-38
2021/05/23 09:51:17;;;;;;;2.97;2.77;;;13.10;99.90;;;;;;5143752;27;20498;-37
2021/05/23 09:53:59;;;;;;;3.23;3.03;;;13.10;99.90;;;;;;5142385;27;20441;-35
2021/05/23 09:56:33;;;;;;;2.50;2.20;;;13.20;99.90;;;;;;5143863;27;20513;-39
2021/05/23 09:59:03;;;;;;;3.20;2.90;;;13.20;99.90;;;;;;5142384;27;20612;-37
2021/05/23 10:01:35;;;;;;;2.80;2.60;;;13.20;99.90;;;;;;5143512;27;20548;-39
2021/05/23 10:04:06;;;;;;;2.60;2.40;;;13.10;99.90;;;;;;5143640;27;20459;-38
2021/05/23 10:06:38;;;;;;;2.93;2.73;;;13.10;99.90;;;;;;5143565;27;20478;-39
2021/05/23 10:09:09;;;;;;;3.10;2.80;;;13.20;99.90;;;;;;5143560;27;20456;-39
2021/05/23 10:11:39;;;;;;;2.70;2.47;;;13.10;99.90;;;;;;5144281;28;20448;-39
2021/05/23 10:14:09;;;;;;;5.03;2.73;;;13.20;99.90;;;;;;5142544;28;20509;-39
2021/05/23 10:16:42;;;;;;;2.90;2.70;;;13.10;99.90;;;;;;5142432;28;20485;-38
2021/05/23 10:19:14;;;;;;;4.00;2.90;;;13.10;99.90;;;;;;5142520;28;20595;-40
2021/05/23 10:21:52;;;;;;;3.37;3.17;;;13.00;99.90;;;;;;5144525;27;20455;-39
2021/05/23 10:24:27;;;;;;;3.00;2.80;;;13.00;99.90;;;;;;5148156;27;20441;-38
2021/05/23 10:27:05;;;;;;;2.97;2.77;;;13.00;99.90;;;;;;5133860;27;20451;-37
2021/05/23 10:29:39;;;;;;;2.20;2.10;;;13.00;99.90;;;;;;5136760;27;20460;-39
2021/05/23 10:32:15;;;;;;;3.10;2.87;;;13.00;99.90;;;;;;5147419;27;20859;-39
2021/05/23 10:34:48;;;;;;;4.60;2.70;;;13.00;99.90;;;;;;5147834;27;20600;-39
2021/05/23 10:37:20;;;;;;;3.00;2.47;;;13.00;99.90;;;;;;5147072;27;20440;-38
2021/05/23 10:39:51;;;;;;;4.30;2.90;;;13.00;99.90;;;;;;5146842;27;20513;-38
2021/05/23 10:42:24;;;;;;;3.23;2.90;;;13.00;99.90;;;;;;5147838;27;20453;-39
2021/05/23 10:44:56;;;;;;;2.93;2.70;;;13.10;99.90;;;;;;5146170;27;20449;-39
2021/05/23 10:47:30;;;;;;;3.50;3.20;;;13.10;99.90;;;;;;5145720;27;20449;-39
2021/05/23 10:50:03;;;;;;;3.50;3.20;;;13.20;99.90;;;;;;5147154;27;20448;-39
2021/05/23 10:52:35;;;;;;;3.77;3.43;;;13.10;99.90;;;;;;5146778;27;20449;-38
2021/05/23 10:55:08;;;;;;;4.33;2.93;;;13.00;99.90;;;;;;5142190;27;20441;-39
2021/05/23 10:57:46;;;;;;;3.93;2.90;;;13.00;99.90;;;;;;5145994;27;20506;-38
2021/05/23 11:00:22;;;;;;;2.83;2.63;;;13.10;99.90;;;;;;5145859;27;20506;-39
2021/05/23 11:02:55;;;;;;;3.87;3.47;;;13.10;99.90;;;;;;5144665;27;20497;-39
2021/05/23 11:05:27;;;;;;;3.07;2.87;;;13.20;99.90;;;;;;5147100;27;20445;-39
2021/05/23 11:07:58;;;;;;;3.40;3.10;;;13.30;99.90;;;;;;5147345;27;20501;-39
2021/05/23 11:10:33;;;;;;;3.20;3.00;;;13.30;99.90;;;;;;5145953;27;20904;-39
2021/05/23 11:13:04;;;;;;;3.70;3.40;;;13.20;99.90;;;;;;5146171;27;20432;-40
2021/05/23 11:15:42;;;;;;;3.87;3.60;;;13.30;99.90;;;;;;5146010;27;20478;-39
2021/05/23 11:18:20;;;;;;;4.47;3.10;;;13.20;99.90;;;;;;5146418;27;20548;-38
2021/05/23 11:20:57;;;;;;;3.43;3.13;;;13.20;99.90;;;;;;5146332;27;20585;-39
2021/05/23 11:23:28;;;;;;;3.23;2.93;;;13.30;99.90;;;;;;5146619;27;20460;-37
2021/05/23 11:26:06;;;;;;;3.83;3.57;;;13.30;99.90;;;;;;5146760;27;20440;-37
2021/05/23 11:28:37;;;;;;;3.40;3.20;;;13.10;99.90;;;;;;5145702;27;20451;-39
2021/05/23 11:31:08;;;;;;;3.30;3.00;;;13.10;99.90;;;;;;5146689;27;20464;-38
2021/05/23 11:33:40;;;;;;;3.27;3.03;;;13.10;99.90;;;;;;5143990;27;20556;-38
2021/05/23 11:36:19;;;;;;;3.60;3.30;;;13.20;99.90;;;;;;5135230;27;20557;-40
2021/05/23 11:38:50;;;;;;;3.73;3.43;;;13.20;99.90;;;;;;5129396;27;20508;-40
2021/05/23 11:41:31;;;;;;;4.03;3.73;;;13.20;99.90;;;;;;5146315;27;20445;-39
2021/05/23 11:44:02;;;;;;;5.27;4.63;;;13.20;99.90;;;;;;5145415;27;20455;-38
2021/05/23 11:46:33;;;;;;;3.90;3.60;;;13.20;99.90;;;;;;5146096;27;20497;-40
2021/05/23 11:49:24;;;;;;;4.80;4.40;;;13.20;99.90;;;;;;5146316;27;20472;-40
2021/05/23 11:51:59;;;;;;;5.33;4.10;;;13.20;99.90;;;;;;5145659;27;20445;-40
2021/05/23 11:54:29;;;;;;;4.63;4.13;;;13.10;99.90;;;;;;5145358;27;20506;-39
2021/05/23 11:57:00;;;;;;;5.80;5.30;;;13.20;99.90;;;;;;5146534;27;20493;-39
2021/05/23 11:59:32;;;;;;;4.17;3.77;;;13.10;99.90;;;;;;5145050;27;20491;-39
2021/05/23 12:02:03;;;;;;;4.70;4.30;;;13.10;99.90;;;;;;5145633;27;20475;-40
2021/05/23 12:04:35;;;;;;;4.87;4.47;;;13.00;99.90;;;;;;5145172;27;20556;-41
2021/05/23 12:07:05;;;;;;;4.83;4.17;;;13.10;99.90;;;;;;5146131;27;20460;-38
2021/05/23 12:09:38;;;;;;;4.30;4.00;;;13.00;99.90;;;;;;5145404;27;20457;-40
2021/05/23 12:12:09;;;;;;;4.80;4.40;;;13.10;99.90;;;;;;5145870;27;20601;-36
2021/05/23 12:14:45;;;;;;;5.27;4.77;;;13.00;99.90;;;;;;5144214;27;20445;-39
2021/05/23 12:17:16;;;;;;;4.23;3.83;;;13.00;99.90;;;;;;5144786;27;20831;-37
2021/05/23 12:19:49;;;;;;;4.30;3.90;;;13.00;99.90;;;;;;5145358;27;20476;-39
2021/05/23 12:22:21;;;;;;;3.90;3.60;;;12.90;99.90;;;;;;5144855;27;20449;-39
2021/05/23 12:24:52;;;;;;;4.27;3.97;;;12.90;99.90;;;;;;5144600;27;20449;-39
2021/05/23 12:27:27;;;;;;;4.53;4.13;;;12.90;99.90;;;;;;5141836;27;20445;-40
2021/05/23 12:30:09;;;;;;;4.50;4.07;;;12.80;99.90;;;;;;5144470;27;20459;-40
2021/05/23 12:32:52;;;;;;;6.83;4.57;;;12.90;99.90;;;;;;5144598;27;20471;-40
2021/05/23 12:35:27;;;;;;;6.33;4.07;;;12.90;99.90;;;;;;5140146;27;20432;-37
2021/05/23 12:37:58;;;;;;;4.07;3.77;;;13.00;99.90;;;;;;5145411;27;20452;-37
2021/05/23 12:40:30;;;;;;;5.20;4.80;;;12.90;99.90;;;;;;5144754;27;20453;-40
2021/05/23 12:43:12;;;;;;;4.00;3.70;;;12.90;99.90;;;;;;5142925;27;20470;-40
2021/05/23 12:45:45;;;;;;;4.23;3.93;;;13.00;99.90;;;;;;5142575;27;20446;-40
2021/05/23 12:48:15;;;;;;;4.77;4.40;;;13.00;99.90;;;;;;5145213;27;20476;-40
2021/05/23 12:50:49;;;;;;;4.30;4.00;;;13.00;99.90;;;;;;5144600;27;20441;-38
2021/05/23 12:53:23;;;;;;;4.50;4.10;;;12.90;99.90;;;;;;5145945;27;20473;-39
2021/05/23 12:55:55;;;;;;;4.40;4.00;;;13.00;99.90;;;;;;5144380;27;20448;-39
2021/05/23 12:58:25;;;;;;;4.20;3.90;;;13.00;99.90;;;;;;5144970;27;20473;-40
2021/05/23 13:00:56;;;;;;;3.77;3.47;;;13.00;99.90;;;;;;5144010;27;20453;-35
2021/05/23 13:03:26;;;;;;;6.97;4.17;;;12.90;99.90;;;;;;5145184;27;20497;-38
2021/05/23 13:06:00;;;;;;;4.30;3.87;;;12.90;99.90;;;;;;5144456;27;20502;-38
2021/05/23 13:08:35;;;;;;;3.90;3.60;;;12.90;99.90;;;;;;5145177;27;20445;-40
2021/05/23 13:11:05;;;;;;;4.70;4.30;;;13.00;99.90;;;;;;5143539;27;20452;-37
2021/05/23 13:13:43;;;;;;;3.63;3.43;;;12.90;99.90;;;;;;5144238;27;20453;-37